Time;durP1;ratioP1;P1;durP2;ratioP2;P2;SDS_P1;SDS_P2;PMS_P1;PMS_P2;Temp;Humidity;BMP_temperature;BMP_pressure;BME280_temperature;BME280_humidity;BME280_pressure;Samples;Min_cycle;Max_cycle;Signal;HPM_P1;HPM_P2
2021/01/30 00:02:22;;;;;;;11.10;4.13;;;1.30;97.00;;;;;;4916390;29;20036;-74
2021/01/30 00:04:49;;;;;;;8.18;3.88;;;1.30;97.00;;;;;;4899743;29;20048;-74
2021/01/30 00:07:16;;;;;;;12.77;4.05;;;1.30;97.10;;;;;;4916621;29;20050;-75
2021/01/30 00:09:42;;;;;;;7.57;4.20;;;1.30;96.90;;;;;;4916693;29;20460;-74
2021/01/30 00:12:09;;;;;;;6.72;3.78;;;1.30;96.80;;;;;;4916270;29;20072;-74
2021/01/30 00:14:37;;;;;;;7.65;3.67;;;1.30;96.60;;;;;;4930667;29;20036;-74
2021/01/30 00:17:04;;;;;;;10.60;3.30;;;1.30;96.50;;;;;;4915248;29;20050;-74
2021/01/30 00:19:32;;;;;;;8.07;3.28;;;1.40;96.40;;;;;;4916212;29;20078;-75
2021/01/30 00:22:01;;;;;;;8.13;3.22;;;1.30;96.40;;;;;;4916419;29;20178;-74
2021/01/30 00:24:28;;;;;;;6.60;3.72;;;1.70;96.80;;;;;;4899634;29;20040;-74
2021/01/30 00:26:56;;;;;;;9.88;3.72;;;1.30;96.70;;;;;;4916423;29;20044;-73
2021/01/30 00:29:23;;;;;;;10.57;4.22;;;1.30;96.80;;;;;;4916383;29;20071;-73
2021/01/30 00:31:49;;;;;;;10.38;3.60;;;1.30;97.10;;;;;;4899148;29;20064;-74
2021/01/30 00:34:16;;;;;;;7.63;3.50;;;1.30;96.60;;;;;;4919179;29;20036;-74
2021/01/30 00:36:42;;;;;;;8.95;3.72;;;1.60;96.80;;;;;;4916257;29;20150;-74
2021/01/30 00:39:08;;;;;;;11.82;3.50;;;1.30;96.70;;;;;;4899482;29;20040;-73
2021/01/30 00:41:34;;;;;;;6.97;3.20;;;1.30;97.20;;;;;;4899481;29;20048;-74
2021/01/30 00:44:00;;;;;;;6.70;3.53;;;1.40;97.00;;;;;;4899210;29;20036;-74
2021/01/30 00:46:27;;;;;;;9.57;3.55;;;1.40;97.00;;;;;;4916275;29;20116;-74
2021/01/30 00:48:53;;;;;;;7.97;3.33;;;1.40;96.80;;;;;;4898840;29;20123;-73
2021/01/30 00:51:20;;;;;;;7.35;3.20;;;1.40;96.70;;;;;;4905730;29;20119;-75
2021/01/30 00:53:46;;;;;;;9.43;3.58;;;1.40;96.80;;;;;;4916154;29;20116;-74
2021/01/30 00:56:13;;;;;;;8.63;3.53;;;1.50;96.90;;;;;;4916667;29;20040;-74
2021/01/30 00:58:40;;;;;;;7.53;3.25;;;1.40;97.00;;;;;;4919939;29;20032;-74
2021/01/30 01:01:06;;;;;;;8.93;3.50;;;1.30;96.80;;;;;;4919597;29;20492;-73
2021/01/30 01:03:32;;;;;;;7.45;3.38;;;1.30;96.50;;;;;;4900248;29;20528;-73
2021/01/30 01:05:59;;;;;;;11.25;3.83;;;1.30;96.70;;;;;;4919347;29;20119;-74
2021/01/30 01:08:25;;;;;;;12.13;4.40;;;1.30;97.20;;;;;;4919675;29;20047;-73
2021/01/30 01:10:51;;;;;;;7.07;3.17;;;1.30;96.70;;;;;;4919618;29;20044;-73
2021/01/30 01:13:17;;;;;;;9.77;3.97;;;1.40;97.10;;;;;;4919520;29;20087;-72
2021/01/30 01:15:43;;;;;;;8.43;4.45;;;1.30;96.70;;;;;;4919621;29;20115;-72
2021/01/30 01:18:09;;;;;;;9.02;3.55;;;1.30;96.90;;;;;;4919366;29;20083;-72
2021/01/30 01:20:35;;;;;;;15.55;4.13;;;1.30;97.20;;;;;;4919041;29;20135;-72
2021/01/30 01:23:01;;;;;;;7.03;4.35;;;1.30;97.30;;;;;;4902521;29;20115;-72
2021/01/30 01:25:27;;;;;;;9.13;4.53;;;1.30;97.00;;;;;;4919509;29;20044;-73
2021/01/30 01:27:52;;;;;;;9.07;4.40;;;1.30;97.40;;;;;;4919318;29;20124;-72
2021/01/30 01:30:21;;;;;;;10.82;4.82;;;1.30;97.30;;;;;;4902660;29;20152;-72
2021/01/30 01:32:47;;;;;;;9.98;5.05;;;1.30;97.40;;;;;;4919392;29;20533;-74
2021/01/30 01:35:16;;;;;;;8.27;4.97;;;1.30;97.60;;;;;;4919169;29;20119;-74
2021/01/30 01:37:44;;;;;;;12.00;5.18;;;1.30;97.60;;;;;;4918865;29;20036;-73
2021/01/30 01:40:13;;;;;;;11.35;5.28;;;1.30;97.80;;;;;;4918979;29;20044;-73
2021/01/30 01:42:39;;;;;;;8.88;4.75;;;1.30;97.70;;;;;;4902720;29;20052;-73
2021/01/30 01:45:06;;;;;;;8.73;4.90;;;2.10;97.90;;;;;;4919052;29;20036;-73
2021/01/30 01:47:39;;;;;;;11.85;5.15;;;1.20;97.90;;;;;;4933641;29;20036;-73
2021/01/30 01:50:13;;;;;;;9.27;5.53;;;1.20;98.00;;;;;;4918953;29;20123;-74
2021/01/30 01:52:41;;;;;;;10.73;5.18;;;1.20;98.10;;;;;;4918947;29;20044;-73
2021/01/30 01:55:09;;;;;;;12.95;5.45;;;1.20;98.00;;;;;;4918251;29;20047;-74
2021/01/30 01:57:40;;;;;;;13.68;5.70;;;1.20;98.00;;;;;;4919194;29;20040;-73
2021/01/30 02:00:06;;;;;;;9.63;5.63;;;1.10;98.10;;;;;;4901955;29;20485;-73
2021/01/30 02:02:32;;;;;;;11.05;6.10;;;1.10;98.00;;;;;;4918377;29;20036;-74
2021/01/30 02:05:09;;;;;;;15.07;5.70;;;1.10;98.20;;;;;;4918812;29;20041;-74
2021/01/30 02:07:41;;;;;;;13.18;5.75;;;1.10;98.10;;;;;;4917694;29;20081;-74
2021/01/30 02:10:12;;;;;;;10.48;5.40;;;1.10;98.30;;;;;;4918124;29;20398;-74
2021/01/30 02:12:40;;;;;;;9.10;5.50;;;1.10;98.20;;;;;;4918105;29;20052;-73
2021/01/30 02:15:07;;;;;;;11.60;5.85;;;1.10;98.10;;;;;;4933084;29;20051;-74
2021/01/30 02:17:46;;;;;;;13.88;5.95;;;1.10;98.00;;;;;;4918274;29;20060;-74
2021/01/30 02:20:30;;;;;;;11.48;6.50;;;1.10;97.90;;;;;;4932892;29;20048;-74
2021/01/30 02:23:04;;;;;;;10.77;5.82;;;1.00;98.20;;;;;;4918402;29;20036;-74
2021/01/30 02:25:59;;;;;;;9.90;5.82;;;1.00;98.10;;;;;;4918432;29;20051;-75
2021/01/30 02:28:46;;;;;;;12.43;6.10;;;1.00;98.20;;;;;;4912966;29;20562;-74
2021/01/30 02:31:42;;;;;;;11.82;5.70;;;1.00;98.30;;;;;;4918369;29;20485;-74
2021/01/30 02:34:08;;;;;;;;;;;1.00;98.40;;;;;;4918440;29;20036;-74
2021/01/30 02:36:53;;;;;;;11.88;5.72;;;0.90;98.40;;;;;;4916726;29;19963;-74
2021/01/30 02:39:34;;;;;;;12.93;5.95;;;1.00;98.50;;;;;;4918030;29;20044;-74
2021/01/30 02:42:05;;;;;;;12.40;5.90;;;1.00;98.70;;;;;;4901151;29;20092;-74
2021/01/30 02:44:35;;;;;;;14.68;6.50;;;0.90;98.50;;;;;;4917274;29;20497;-75
2021/01/30 02:47:02;;;;;;;11.25;5.82;;;1.60;98.90;;;;;;4917966;29;20119;-74
2021/01/30 02:49:35;;;;;;;12.88;6.25;;;1.00;98.70;;;;;;4932413;29;20104;-74
2021/01/30 02:52:24;;;;;;;13.80;6.00;;;0.90;98.60;;;;;;4903593;29;20453;-73
2021/01/30 02:54:56;;;;;;;10.82;5.80;;;1.00;98.90;;;;;;4901008;29;20042;-74
2021/01/30 02:57:24;;;;;;;18.75;6.28;;;0.90;98.80;;;;;;4917823;29;20095;-73
2021/01/30 02:59:54;;;;;;;11.55;6.63;;;1.00;98.70;;;;;;4917430;29;20064;-73
2021/01/30 03:02:24;;;;;;;14.50;6.53;;;0.90;98.70;;;;;;4917272;29;20048;-73
2021/01/30 03:04:56;;;;;;;12.82;6.13;;;1.70;99.00;;;;;;4917503;29;20035;-74
2021/01/30 03:07:35;;;;;;;11.77;6.30;;;0.90;98.80;;;;;;4917658;29;20407;-73
2021/01/30 03:10:21;;;;;;;13.13;7.13;;;0.80;98.90;;;;;;4917063;29;20074;-73
2021/01/30 03:12:55;;;;;;;13.63;7.18;;;0.80;98.90;;;;;;4900862;29;20449;-73
2021/01/30 03:15:35;;;;;;;11.07;6.80;;;0.80;99.00;;;;;;4904941;29;20465;-73
2021/01/30 03:18:05;;;;;;;15.05;6.47;;;0.80;99.00;;;;;;4911963;29;20043;-73
2021/01/30 03:20:33;;;;;;;9.93;6.13;;;0.80;99.10;;;;;;4916769;29;20063;-73
2021/01/30 03:23:01;;;;;;;11.60;6.57;;;0.80;99.00;;;;;;4917301;29;20046;-73
2021/01/30 03:25:29;;;;;;;10.50;6.00;;;0.70;99.10;;;;;;4917195;29;20119;-73
2021/01/30 03:27:56;;;;;;;10.45;6.35;;;0.70;99.20;;;;;;4917009;29;20044;-73
2021/01/30 03:30:23;;;;;;;12.57;6.57;;;0.70;99.20;;;;;;4931890;29;20058;-69
2021/01/30 03:32:49;;;;;;;12.77;6.30;;;0.70;99.30;;;;;;4916807;29;20044;-69
2021/01/30 03:35:15;;;;;;;12.80;6.63;;;0.70;99.30;;;;;;4916996;29;20044;-69
2021/01/30 03:37:41;;;;;;;14.82;5.88;;;0.70;99.40;;;;;;4900240;29;20091;-69
2021/01/30 03:40:09;;;;;;;13.52;6.45;;;0.70;99.40;;;;;;4899742;29;20048;-69
2021/01/30 03:42:36;;;;;;;11.52;6.20;;;0.60;99.30;;;;;;4900044;29;20036;-69
2021/01/30 03:45:04;;;;;;;14.85;5.85;;;0.60;99.40;;;;;;4931394;29;20052;-69
2021/01/30 03:47:30;;;;;;;13.05;6.20;;;0.60;99.40;;;;;;4916898;29;20389;-69
2021/01/30 03:49:55;;;;;;;10.18;5.80;;;0.60;99.50;;;;;;4916283;29;20036;-69
2021/01/30 03:52:21;;;;;;;11.32;5.88;;;0.60;99.50;;;;;;4916651;29;20040;-70
2021/01/30 03:54:47;;;;;;;12.63;5.93;;;0.60;99.60;;;;;;4916668;29;20055;-70
2021/01/30 03:57:15;;;;;;;11.40;5.70;;;0.60;99.40;;;;;;4917521;29;20040;-70
2021/01/30 03:59:41;;;;;;;10.75;5.80;;;0.60;99.40;;;;;;4916689;29;20040;-70
2021/01/30 04:02:07;;;;;;;15.20;5.70;;;0.60;99.50;;;;;;4916643;29;20048;-70
2021/01/30 04:04:34;;;;;;;14.57;5.53;;;0.60;99.50;;;;;;4915941;29;20036;-70
2021/01/30 04:07:00;;;;;;;9.25;4.85;;;0.60;99.30;;;;;;4916677;29;20062;-70
2021/01/30 04:09:27;;;;;;;9.07;5.18;;;0.60;99.20;;;;;;4931196;29;20509;-70
2021/01/30 04:11:53;;;;;;;12.10;5.05;;;0.60;99.10;;;;;;4916643;29;20044;-70
2021/01/30 04:14:20;;;;;;;13.40;5.25;;;0.60;99.10;;;;;;4915773;29;20488;-70
2021/01/30 04:16:46;;;;;;;7.60;4.85;;;0.60;99.10;;;;;;4916476;29;20107;-69
2021/01/30 04:19:12;;;;;;;11.73;4.82;;;0.60;99.00;;;;;;4916018;29;20048;-69
2021/01/30 04:21:38;;;;;;;11.55;5.65;;;0.60;98.80;;;;;;4915886;29;20047;-69
2021/01/30 04:24:04;;;;;;;11.10;5.60;;;0.60;99.00;;;;;;4916560;29;20036;-69
2021/01/30 04:26:30;;;;;;;10.05;5.20;;;0.60;99.00;;;;;;4916083;29;20047;-70
2021/01/30 04:28:56;;;;;;;11.20;5.38;;;0.50;98.90;;;;;;4921025;29;20039;-70
2021/01/30 04:31:22;;;;;;;14.23;6.03;;;0.60;98.90;;;;;;4920136;29;20055;-71
2021/01/30 04:33:50;;;;;;;11.52;5.10;;;0.60;99.10;;;;;;4899511;29;20115;-70
2021/01/30 04:36:17;;;;;;;10.45;5.40;;;0.50;98.70;;;;;;4919937;29;20037;-70
2021/01/30 04:38:43;;;;;;;13.60;5.22;;;0.50;98.80;;;;;;4920299;29;20044;-70
2021/01/30 04:41:20;;;;;;;13.77;5.45;;;0.50;98.80;;;;;;4920027;29;20048;-71
2021/01/30 04:44:10;;;;;;;9.60;5.25;;;0.50;98.80;;;;;;4926721;29;20040;-70
2021/01/30 04:46:54;;;;;;;12.90;4.65;;;0.50;98.70;;;;;;4911536;29;20119;-70
2021/01/30 04:49:27;;;;;;;17.08;5.10;;;0.50;98.70;;;;;;4919932;29;20062;-69
2021/01/30 04:52:13;;;;;;;8.80;5.35;;;0.50;98.60;;;;;;4919906;29;20405;-70
2021/01/30 04:55:00;;;;;;;11.60;5.03;;;0.50;98.60;;;;;;4908011;29;20036;-70
2021/01/30 04:57:35;;;;;;;8.60;4.28;;;0.40;98.50;;;;;;4919756;29;20044;-69
2021/01/30 05:00:09;;;;;;;9.65;5.45;;;0.40;98.50;;;;;;4902981;29;20047;-69
2021/01/30 05:03:01;;;;;;;10.98;4.80;;;0.40;98.60;;;;;;4919730;29;20044;-69
2021/01/30 05:05:29;;;;;;;10.88;5.13;;;0.40;98.90;;;;;;4893089;29;20051;-69
2021/01/30 05:08:32;;;;;;;7.55;4.43;;;0.40;98.70;;;;;;4902526;29;20382;-70
2021/01/30 05:11:01;;;;;;;10.73;4.85;;;0.40;98.60;;;;;;4917985;29;20052;-71
2021/01/30 05:13:44;;;;;;;7.53;4.75;;;0.50;98.50;;;;;;4903134;29;20083;-70
2021/01/30 05:16:21;;;;;;;9.32;4.95;;;0.50;98.70;;;;;;4919585;29;20121;-70
2021/01/30 05:18:54;;;;;;;7.15;4.78;;;0.50;98.50;;;;;;4919264;29;20056;-70
2021/01/30 05:21:21;;;;;;;14.70;5.25;;;0.50;98.60;;;;;;4918036;29;20040;-69
2021/01/30 05:23:56;;;;;;;11.05;5.20;;;0.50;98.60;;;;;;4932891;29;20040;-69
2021/01/30 05:26:27;;;;;;;11.05;5.20;;;0.50;98.60;;;;;;4917821;29;20044;-70
2021/01/30 05:29:07;;;;;;;8.45;4.68;;;0.50;98.50;;;;;;4918242;29;20032;-70
2021/01/30 05:32:20;;;;;;;9.95;5.45;;;0.50;98.50;;;;;;4917802;29;20098;-69
2021/01/30 05:34:54;;;;;;;14.20;5.22;;;0.50;98.50;;;;;;4889163;29;20056;-70
2021/01/30 05:37:27;;;;;;;9.27;4.75;;;0.50;98.60;;;;;;4918248;29;20036;-70
2021/01/30 05:40:11;;;;;;;10.27;4.40;;;0.50;98.70;;;;;;4917890;29;20040;-70
2021/01/30 05:42:45;;;;;;;13.18;5.13;;;0.50;98.60;;;;;;4917473;29;20040;-70
2021/01/30 05:45:35;;;;;;;8.25;4.90;;;0.40;98.60;;;;;;4900546;29;20048;-70
2021/01/30 05:48:01;;;;;;;9.95;4.78;;;0.40;98.70;;;;;;4918053;29;20036;-70
2021/01/30 05:51:04;;;;;;;9.02;4.60;;;0.50;98.70;;;;;;4917611;29;20089;-70
2021/01/30 05:53:31;;;;;;;10.43;5.05;;;0.40;98.40;;;;;;4911570;29;20080;-70
2021/01/30 05:55:57;;;;;;;7.63;4.90;;;0.40;98.50;;;;;;4917732;29;20059;-71
2021/01/30 05:58:25;;;;;;;9.43;4.32;;;0.40;98.60;;;;;;4917698;29;20042;-70
2021/01/30 06:01:16;;;;;;;14.82;4.75;;;0.40;98.50;;;;;;4917289;29;20052;-70
2021/01/30 06:03:59;;;;;;;11.55;4.90;;;0.40;98.40;;;;;;4917445;29;20040;-70
2021/01/30 06:06:31;;;;;;;12.65;5.40;;;0.40;98.50;;;;;;4909667;29;20055;-70
2021/01/30 06:09:09;;;;;;;9.60;5.28;;;0.40;98.60;;;;;;4917785;29;20137;-70
2021/01/30 06:11:49;;;;;;;10.35;5.00;;;0.30;98.50;;;;;;4917575;29;20044;-70
2021/01/30 06:14:27;;;;;;;10.20;5.13;;;0.30;98.40;;;;;;4917583;29;20404;-70
2021/01/30 06:16:59;;;;;;;11.43;4.97;;;0.30;98.40;;;;;;4917194;29;20044;-70
2021/01/30 06:19:33;;;;;;;6.95;4.35;;;0.30;98.70;;;;;;4896779;29;609329;-70
2021/01/30 06:22:12;;;;;;;10.82;5.40;;;0.30;98.70;;;;;;4918413;29;20040;-74
2021/01/30 06:24:45;;;;;;;10.40;5.70;;;0.30;98.80;;;;;;4918396;29;20044;-71
2021/01/30 06:27:22;;;;;;;8.75;5.40;;;0.30;98.90;;;;;;4918421;29;20040;-71
2021/01/30 06:30:06;;;;;;;11.80;6.18;;;0.30;98.90;;;;;;4918147;29;20511;-71
2021/01/30 06:32:47;;;;;;;9.82;5.65;;;0.30;98.90;;;;;;4918019;29;20066;-70
2021/01/30 06:35:18;;;;;;;11.93;6.13;;;0.30;98.80;;;;;;4900743;29;20123;-74
2021/01/30 06:38:03;;;;;;;7.57;4.70;;;0.30;98.70;;;;;;4918066;29;20492;-74
2021/01/30 06:40:34;;;;;;;8.48;5.10;;;0.30;98.60;;;;;;4905364;29;20102;-74
2021/01/30 06:43:15;;;;;;;12.43;6.00;;;0.30;98.70;;;;;;4918091;29;20040;-75
2021/01/30 06:45:45;;;;;;;11.45;5.97;;;0.30;98.60;;;;;;4917780;29;20488;-75
2021/01/30 06:48:53;;;;;;;13.38;5.53;;;0.30;98.70;;;;;;4917971;29;20044;-74
2021/01/30 06:51:22;;;;;;;9.32;5.90;;;0.20;98.60;;;;;;4877963;29;20045;-74
2021/01/30 06:53:48;;;;;;;10.65;5.68;;;0.20;98.60;;;;;;4908775;29;20083;-75
2021/01/30 06:56:22;;;;;;;11.57;5.68;;;0.30;98.90;;;;;;4917649;29;20446;-71
2021/01/30 06:58:50;;;;;;;13.65;6.60;;;0.20;98.60;;;;;;4917606;29;20040;-69
2021/01/30 07:01:21;;;;;;;13.50;6.72;;;0.20;98.60;;;;;;4917610;29;20032;-70
2021/01/30 07:04:09;;;;;;;12.52;6.57;;;0.20;98.60;;;;;;4918821;29;20060;-74
2021/01/30 07:06:49;;;;;;;14.80;6.72;;;0.20;98.70;;;;;;4918183;29;20429;-70
2021/01/30 07:09:21;;;;;;;13.88;6.55;;;0.20;98.90;;;;;;4918128;29;20040;-74
2021/01/30 07:12:06;;;;;;;9.60;6.43;;;0.50;98.50;;;;;;4919191;29;20135;-71
2021/01/30 07:14:51;;;;;;;11.82;6.63;;;0.10;98.80;;;;;;4912954;29;20087;-74
2021/01/30 07:17:28;;;;;;;11.35;6.47;;;0.10;98.50;;;;;;4910801;29;20036;-71
2021/01/30 07:20:03;;;;;;;13.80;7.13;;;0.10;98.40;;;;;;4918685;29;20050;-72
2021/01/30 07:23:03;;;;;;;15.35;7.32;;;0.10;98.40;;;;;;4918464;29;20040;-74
2021/01/30 07:25:37;;;;;;;15.95;6.95;;;0.10;98.50;;;;;;4925846;29;20050;-74
2021/01/30 07:28:20;;;;;;;10.23;6.63;;;0.10;98.80;;;;;;4932555;28;20538;-79
2021/01/30 07:31:12;;;;;;;14.25;7.55;;;0.10;98.90;;;;;;4917707;29;20039;-78
2021/01/30 07:33:52;;;;;;;11.48;6.78;;;0.10;99.00;;;;;;4904994;29;20152;-74
2021/01/30 07:36:39;;;;;;;17.33;6.78;;;0.00;98.80;;;;;;4922725;29;20040;-73
2021/01/30 07:39:41;;;;;;;14.50;6.93;;;0.00;98.90;;;;;;4904973;29;20039;-80
2021/01/30 07:42:20;;;;;;;12.77;7.18;;;0.00;98.90;;;;;;4895139;29;20044;-74
2021/01/30 07:45:03;;;;;;;11.77;7.20;;;0.20;98.90;;;;;;4916053;29;20040;-74
2021/01/30 07:47:41;;;;;;;14.30;7.30;;;0.00;98.90;;;;;;4917414;29;20039;-74
2021/01/30 07:50:19;;;;;;;15.88;6.80;;;0.10;98.80;;;;;;4921051;29;20036;-71
2021/01/30 07:52:58;;;;;;;14.63;7.50;;;0.10;98.80;;;;;;4907429;29;20067;-74
2021/01/30 07:55:24;;;;;;;18.20;7.38;;;0.10;98.60;;;;;;4900742;29;20167;-73
2021/01/30 07:58:20;;;;;;;12.88;7.60;;;0.10;98.80;;;;;;4917317;29;20501;-73
2021/01/30 08:00:52;;;;;;;14.88;7.25;;;0.10;98.80;;;;;;4912815;29;20043;-73
2021/01/30 08:03:31;;;;;;;12.07;7.63;;;0.20;98.80;;;;;;4931693;29;20067;-80
2021/01/30 08:06:35;;;;;;;12.68;7.43;;;0.10;98.60;;;;;;4916922;29;20050;-73
2021/01/30 08:09:28;;;;;;;13.90;7.68;;;0.20;98.80;;;;;;4931709;29;20040;-80
2021/01/30 08:12:03;;;;;;;13.40;7.53;;;0.10;98.70;;;;;;4905168;29;20543;-70
2021/01/30 08:14:43;;;;;;;14.02;7.47;;;0.20;98.70;;;;;;4911850;29;20035;-77
2021/01/30 08:17:41;;;;;;;10.48;7.18;;;0.20;98.80;;;;;;4917287;29;20448;-71
2021/01/30 08:20:19;;;;;;;14.55;7.70;;;0.20;98.80;;;;;;4909571;29;20063;-71
2021/01/30 08:22:59;;;;;;;14.05;8.10;;;0.20;98.90;;;;;;4900169;29;20046;-71
2021/01/30 08:25:43;;;;;;;13.57;7.88;;;0.20;98.70;;;;;;4917093;29;20064;-71
2021/01/30 08:28:23;;;;;;;15.52;7.45;;;0.20;98.60;;;;;;4899994;29;20080;-71
2021/01/30 08:30:54;;;;;;;17.52;7.70;;;0.20;98.60;;;;;;4917311;29;20432;-77
2021/01/30 08:33:20;;;;;;;12.98;8.35;;;0.30;98.70;;;;;;4917514;29;20041;-77
2021/01/30 08:35:55;;;;;;;13.30;7.25;;;0.20;98.60;;;;;;4917067;29;20119;-74
2021/01/30 08:38:21;;;;;;;18.30;8.17;;;0.30;98.60;;;;;;4886706;29;20043;-79
2021/01/30 08:40:58;;;;;;;15.48;7.50;;;0.30;98.60;;;;;;4917266;29;20545;-79
2021/01/30 08:43:50;;;;;;;18.02;8.75;;;0.30;98.60;;;;;;4927209;29;20129;-78
2021/01/30 08:46:24;;;;;;;18.42;8.57;;;0.20;98.40;;;;;;4906276;29;20036;-79
2021/01/30 08:49:11;;;;;;;15.35;8.18;;;0.30;98.50;;;;;;4899873;29;20052;-68
2021/01/30 08:51:37;;;;;;;16.98;8.23;;;0.20;98.30;;;;;;4917155;29;20049;-73
2021/01/30 08:54:31;;;;;;;14.95;8.20;;;0.30;98.60;;;;;;4916443;29;20051;-79
2021/01/30 08:56:57;;;;;;;13.20;7.53;;;0.30;98.50;;;;;;4912630;29;20072;-80
2021/01/30 08:59:48;;;;;;;12.05;8.43;;;0.30;98.40;;;;;;4925335;29;20036;-80
2021/01/30 09:02:29;;;;;;;13.23;8.02;;;0.30;98.30;;;;;;4912426;29;20040;-79
2021/01/30 09:05:32;;;;;;;15.07;8.32;;;0.30;98.10;;;;;;4913476;29;20036;-77
2021/01/30 09:08:19;;;;;;;16.67;7.90;;;0.40;98.30;;;;;;4927514;29;20036;-77
2021/01/30 09:10:45;;;;;;;15.25;8.20;;;0.30;98.00;;;;;;4904874;29;20115;-77
2021/01/30 09:13:14;;;;;;;13.00;8.07;;;0.30;98.10;;;;;;4930387;29;20068;-76
2021/01/30 09:15:42;;;;;;;12.52;7.55;;;0.30;98.00;;;;;;4915468;29;20040;-76
2021/01/30 09:18:42;;;;;;;15.05;8.65;;;0.30;97.70;;;;;;4932065;29;20036;-80
2021/01/30 09:21:08;;;;;;;12.55;8.43;;;0.30;97.60;;;;;;4910730;29;20043;-71
2021/01/30 09:23:56;;;;;;;13.30;7.75;;;0.30;98.00;;;;;;4900373;29;20048;-71
2021/01/30 09:26:27;;;;;;;12.98;7.38;;;0.40;98.10;;;;;;4900590;29;20044;-71
2021/01/30 09:28:59;;;;;;;19.65;8.10;;;0.40;97.70;;;;;;4900214;29;20120;-77
2021/01/30 09:31:26;;;;;;;12.90;7.93;;;0.40;97.60;;;;;;4899338;29;20081;-72
2021/01/30 09:34:18;;;;;;;15.52;7.93;;;0.70;97.60;;;;;;4899728;29;20107;-72
2021/01/30 09:36:49;;;;;;;12.38;7.88;;;0.50;97.20;;;;;;4892411;29;20041;-71
2021/01/30 09:39:26;;;;;;;13.95;7.68;;;0.50;97.30;;;;;;4911865;29;20037;-70
2021/01/30 09:42:10;;;;;;;13.63;7.85;;;0.50;97.30;;;;;;4911730;29;20485;-72
2021/01/30 09:44:36;;;;;;;13.43;8.60;;;0.50;97.10;;;;;;4899659;29;20402;-76
2021/01/30 09:47:07;;;;;;;11.73;7.30;;;0.50;96.60;;;;;;4882861;29;20032;-74
2021/01/30 09:49:43;;;;;;;13.88;7.10;;;0.50;96.90;;;;;;4900094;29;20048;-79
2021/01/30 09:52:12;;;;;;;13.07;7.63;;;0.50;96.20;;;;;;4882824;29;20041;-76
2021/01/30 09:54:38;;;;;;;14.20;7.47;;;0.50;96.30;;;;;;4883445;29;20049;-69
2021/01/30 09:57:13;;;;;;;12.20;7.55;;;0.40;96.60;;;;;;4899966;29;20464;-70
2021/01/30 09:59:39;;;;;;;13.43;7.50;;;0.50;96.60;;;;;;4899906;29;20075;-70
2021/01/30 10:02:16;;;;;;;15.55;7.28;;;0.50;96.90;;;;;;4899996;29;20347;-70
2021/01/30 10:04:43;;;;;;;11.85;7.70;;;0.60;96.70;;;;;;4899828;29;20036;-71
2021/01/30 10:07:15;;;;;;;12.27;7.72;;;0.60;97.00;;;;;;4899779;29;20040;-71
2021/01/30 10:09:44;;;;;;;11.52;7.72;;;1.00;96.80;;;;;;4899641;29;20120;-71
2021/01/30 10:12:11;;;;;;;12.93;7.53;;;0.70;96.50;;;;;;4899756;29;20048;-71
2021/01/30 10:14:40;;;;;;;11.32;7.07;;;0.70;96.70;;;;;;4899129;29;20063;-70
2021/01/30 10:17:10;;;;;;;12.38;7.38;;;0.70;95.80;;;;;;4882908;29;20052;-71
2021/01/30 10:19:37;;;;;;;10.18;7.18;;;0.60;95.40;;;;;;4908866;29;21138;-70
2021/01/30 10:22:21;;;;;;;11.40;6.47;;;0.60;96.10;;;;;;4918200;29;20036;-71
2021/01/30 10:24:48;;;;;;;10.15;7.07;;;0.60;96.20;;;;;;4918044;29;20114;-70
2021/01/30 10:27:21;;;;;;;13.48;7.90;;;0.70;96.20;;;;;;4918301;29;20047;-70
2021/01/30 10:29:48;;;;;;;11.35;6.50;;;0.70;96.40;;;;;;4933965;29;20040;-71
2021/01/30 10:32:50;;;;;;;9.40;6.13;;;0.70;95.90;;;;;;4928763;29;20048;-70
2021/01/30 10:35:19;;;;;;;12.65;6.63;;;0.70;95.20;;;;;;4893577;29;20044;-70
2021/01/30 10:37:53;;;;;;;12.15;7.05;;;0.70;95.40;;;;;;4932669;29;20064;-71
2021/01/30 10:40:21;;;;;;;12.48;7.43;;;1.00;95.50;;;;;;4917815;29;20119;-71
2021/01/30 10:42:47;;;;;;;14.52;7.57;;;0.70;95.90;;;;;;4918031;29;20123;-70
2021/01/30 10:45:22;;;;;;;10.85;6.82;;;0.80;96.20;;;;;;4917915;29;20050;-74
2021/01/30 10:48:00;;;;;;;11.70;7.22;;;0.90;95.90;;;;;;4917967;29;20044;-74
2021/01/30 10:50:59;;;;;;;10.75;6.95;;;0.90;95.30;;;;;;4917463;29;20123;-74
2021/01/30 10:53:35;;;;;;;13.23;6.80;;;1.00;95.70;;;;;;4917742;29;20118;-74
2021/01/30 10:56:26;;;;;;;12.27;6.88;;;0.90;95.40;;;;;;4917734;29;20408;-74
2021/01/30 10:58:54;;;;;;;8.88;5.50;;;0.90;94.80;;;;;;4917738;29;20063;-74
2021/01/30 11:01:20;;;;;;;9.52;6.13;;;1.10;93.50;;;;;;4917581;29;20051;-74
2021/01/30 11:04:00;;;;;;;9.38;5.70;;;0.80;93.70;;;;;;4931791;29;20063;-74
2021/01/30 11:06:46;;;;;;;10.85;6.10;;;0.90;94.70;;;;;;4904616;29;20043;-74
2021/01/30 11:09:18;;;;;;;9.35;5.72;;;0.90;94.10;;;;;;4917626;29;20466;-74
2021/01/30 11:11:45;;;;;;;9.10;6.05;;;0.90;93.80;;;;;;4916740;29;20052;-74
2021/01/30 11:14:17;;;;;;;8.38;5.97;;;0.80;93.90;;;;;;4916780;29;20406;-74
2021/01/30 11:16:44;;;;;;;9.63;5.80;;;0.70;93.60;;;;;;4916718;29;20039;-74
2021/01/30 11:19:23;;;;;;;9.90;6.57;;;0.70;94.20;;;;;;4900457;29;20501;-74
2021/01/30 11:22:10;;;;;;;9.07;5.95;;;0.80;94.40;;;;;;4916790;29;20046;-75
2021/01/30 11:24:47;;;;;;;11.38;6.22;;;0.90;94.30;;;;;;4916717;29;20071;-74
2021/01/30 11:27:34;;;;;;;9.40;6.35;;;0.80;93.60;;;;;;4917391;29;20537;-74
2021/01/30 11:30:15;;;;;;;10.38;6.25;;;0.80;94.20;;;;;;4931678;29;20508;-71
2021/01/30 11:33:09;;;;;;;9.23;5.95;;;0.80;94.30;;;;;;4917112;29;20060;-70
2021/01/30 11:35:37;;;;;;;11.93;6.45;;;0.80;93.90;;;;;;4917265;29;20421;-70
2021/01/30 11:38:14;;;;;;;8.50;6.03;;;0.80;93.90;;;;;;4916941;29;20059;-71
2021/01/30 11:40:40;;;;;;;8.10;5.20;;;0.80;94.40;;;;;;4916299;29;20044;-71
2021/01/30 11:43:06;;;;;;;10.02;6.05;;;0.90;94.60;;;;;;4917037;29;20044;-71
2021/01/30 11:45:32;;;;;;;12.00;5.97;;;1.00;94.30;;;;;;4916742;29;20386;-71
2021/01/30 11:47:59;;;;;;;11.82;6.22;;;1.00;94.00;;;;;;4916946;29;20032;-71
2021/01/30 11:50:24;;;;;;;8.10;5.85;;;1.00;94.30;;;;;;4916701;29;20048;-71
2021/01/30 11:52:50;;;;;;;10.73;6.18;;;1.00;94.40;;;;;;4916787;29;20484;-71
2021/01/30 11:55:19;;;;;;;8.30;6.25;;;1.10;94.70;;;;;;4899898;29;20099;-71
2021/01/30 11:57:45;;;;;;;11.95;6.25;;;1.10;93.50;;;;;;4916214;29;20115;-71
2021/01/30 12:00:12;;;;;;;8.45;6.13;;;1.10;93.70;;;;;;4916899;29;20132;-73
2021/01/30 12:02:42;;;;;;;10.88;6.35;;;1.20;93.20;;;;;;4916624;29;20058;-73
2021/01/30 12:05:12;;;;;;;8.88;5.80;;;1.20;93.30;;;;;;4916680;29;20040;-74
2021/01/30 12:07:38;;;;;;;8.82;6.43;;;1.20;93.20;;;;;;4916454;29;20048;-74
2021/01/30 12:10:05;;;;;;;8.45;6.47;;;1.20;92.60;;;;;;4899804;29;20107;-71
2021/01/30 12:12:32;;;;;;;9.10;5.50;;;1.30;93.10;;;;;;4916525;29;20047;-73
2021/01/30 12:14:57;;;;;;;8.00;5.50;;;1.30;92.90;;;;;;4916072;29;20084;-74
2021/01/30 12:17:35;;;;;;;7.80;6.18;;;1.20;92.20;;;;;;4916489;29;20044;-74
2021/01/30 12:20:07;;;;;;;10.98;6.07;;;1.20;92.10;;;;;;4916666;29;20055;-74
2021/01/30 12:22:34;;;;;;;8.25;6.28;;;1.20;92.30;;;;;;4916348;29;20075;-74
2021/01/30 12:25:05;;;;;;;8.57;6.10;;;1.30;92.70;;;;;;4916451;29;20043;-74
2021/01/30 12:27:30;;;;;;;13.35;6.50;;;1.30;92.90;;;;;;4916300;29;20040;-74
2021/01/30 12:29:56;;;;;;;9.32;6.15;;;1.30;93.10;;;;;;4930846;29;20477;-74
2021/01/30 12:32:22;;;;;;;7.90;5.68;;;1.30;92.30;;;;;;4915882;29;20091;-74
2021/01/30 12:34:48;;;;;;;9.65;6.78;;;1.30;92.60;;;;;;4916106;29;20042;-74
2021/01/30 12:37:14;;;;;;;9.70;6.47;;;1.20;92.00;;;;;;4916263;29;20055;-74
2021/01/30 12:39:39;;;;;;;8.25;6.30;;;1.10;92.50;;;;;;4903412;29;20469;-74
2021/01/30 12:42:05;;;;;;;9.55;6.35;;;0.90;92.60;;;;;;4916038;29;20036;-74
2021/01/30 12:44:32;;;;;;;9.10;6.35;;;0.90;93.00;;;;;;4916486;29;20405;-74
2021/01/30 12:46:58;;;;;;;11.13;7.03;;;0.90;92.40;;;;;;4916265;29;20040;-70
2021/01/30 12:49:24;;;;;;;9.45;6.97;;;0.80;92.90;;;;;;4915911;29;20044;-72
2021/01/30 12:51:50;;;;;;;10.13;6.57;;;0.90;93.40;;;;;;4899506;29;20417;-70
2021/01/30 12:54:20;;;;;;;9.27;6.57;;;0.90;93.50;;;;;;4902788;29;20032;-70
2021/01/30 12:56:46;;;;;;;10.27;7.15;;;1.20;93.20;;;;;;4919902;29;20047;-70
2021/01/30 12:59:13;;;;;;;8.80;6.43;;;1.40;93.10;;;;;;4919780;29;20043;-70
2021/01/30 13:01:39;;;;;;;9.38;6.53;;;0.90;93.10;;;;;;4919779;29;20163;-70
2021/01/30 13:04:05;;;;;;;11.48;6.82;;;0.90;93.60;;;;;;4919648;29;20090;-70
2021/01/30 13:06:32;;;;;;;8.65;6.18;;;0.90;93.30;;;;;;4919498;29;20071;-70
2021/01/30 13:08:58;;;;;;;10.20;7.10;;;1.00;93.70;;;;;;4934586;29;20055;-70
2021/01/30 13:11:24;;;;;;;9.10;6.85;;;1.00;93.70;;;;;;4919667;29;20056;-70
2021/01/30 13:13:50;;;;;;;8.85;6.30;;;1.20;93.90;;;;;;4919626;29;20040;-70
2021/01/30 13:16:16;;;;;;;9.18;5.65;;;1.10;93.30;;;;;;4919414;29;20040;-70
2021/01/30 13:18:41;;;;;;;10.75;6.15;;;1.00;92.40;;;;;;4917242;29;20041;-71
2021/01/30 13:21:08;;;;;;;10.63;6.35;;;1.00;92.70;;;;;;4918894;29;20051;-70
2021/01/30 13:23:34;;;;;;;9.23;6.55;;;0.90;92.90;;;;;;4919571;29;20068;-70